Weather observations for the past three days for
Abingdon
Imperial (Metric)
Date Time (edt) Wind (mph) Vis. (mi.) Weather Sky Cond. Temperature (ºF) Relative Humidity Wind Chill (°F) Heat Index (°F) Pressure Precipitation (in)
Air Dwpt 6 hour altimeter (in) sea level (mb) 1 hr 3 hr 6 hr
Max. Min.
06 16:15 W 8 G 17 10.00 Overcast FEW017 BKN023 OVC028 66.2 60.8 83% 29.9 0.0
06 15:55 W 12 G 20 10.00 Overcast SCT015 BKN021 OVC027 66.2 60.8 83% 29.91 0.0
06 15:35 SW 13 10.00 Overcast SCT015 BKN029 OVC037 66.2 60.8 83% 29.92 0.0
06 15:15 W 18 G 24 10.00 Overcast BKN015 BKN022 OVC030 66.2 60.8 83% 29.91 0.0
06 14:55 SW 15 G 21 10.00 Overcast BKN015 BKN022 OVC028 66.2 60.8 83% 29.9 0.0 0.01
06 14:35 SW 14 10.00 Overcast OVC013 64.4 60.8 88% 29.9 0.0
06 14:15 W 12 10.00 Overcast BKN011 OVC017 64.4 60.8 88% 29.9 0.0
06 13:55 SW 13 G 20 10.00 Overcast BKN011 OVC020 64.4 60.8 64 56.5 88% 29.9 0.0
06 13:35 SW 13 G 26 10.00 Overcast SCT009 OVC016 64.4 60.8 88% 29.91 0.0
06 13:15 SW 10 10.00 Overcast BKN011 OVC016 62.6 60.8 94% 29.91 0.0
06 12:55 SW 12 10.00 Light Rain BKN011 OVC020 62.6 60.8 94% 29.92 0.0
06 12:35 SW 10 G 18 10.00 Light Rain BKN013 OVC021 62.6 59 88% 29.93 0.0
06 12:15 SW 14 10.00 Light Rain BKN015 OVC021 60.8 59 94% 29.95 0.0
06 11:55 SW 8 8.00 Light Rain OVC015 60.8 57.2 88% 29.96 0.0
06 11:35 SW 3 10.00 Light Rain OVC015 59 57.2 94% 29.96 0.0
06 11:15 Calm 10.00 Overcast OVC017 59 57.2 94% 29.94 0.0
06 10:55 Calm 10.00 Light Rain OVC017 59 57.2 94% 29.92 0.0 0.01
06 10:35 SE 3 10.00 Light Rain OVC020 59 57.2 94% 29.92 0.0
06 10:15 Vrbl 2 10.00 Overcast OVC025 59 57.2 94% 29.92 0.0
06 09:55 SE 2 10.00 Light Rain OVC027 59 57.2 94% 29.92 0.0
06 09:35 SE 5 10.00 Overcast OVC029 59 57.2 94% 29.92 0.0
06 09:15 SE 6 10.00 Light Rain OVC032 57.2 55.4 94% 29.91 0.0
06 08:55 Vrbl 2 3.00 Light Rain Fog/Mist BKN030 OVC042 57.2 55.4 94% 29.93 0.0 0.14
06 08:35 N 5 2.00 Rain Fog/Mist OVC037 57.2 55.4 94% 29.91 0.0
06 08:15 E 1 2.50 Light Rain Fog/Mist OVC039 57.2 55.4 94% 29.89 0.0
06 07:55 E 7 2.00 Light Rain Fog/Mist OVC039 57.2 55.4 63.7 56.3 94% 29.89 0.0 0.08
06 07:35 Calm 10.00 Overcast OVC039 57.2 55.4 94% 29.87 0.0
06 07:15 SE 3 8.00 Light Rain SCT043 BKN050 OVC075 57.2 53.6 88% 29.87 0.0
06 06:55 NW 13 G 22 6.00 Rain Haze SCT042 OVC050 57.2 53.6 88% 29.88 0.0 0.07
06 06:35 NW 7 10.00 Light Rain OVC042 59 53.6 82% 29.86 0.0
06 06:15 W 2 10.00 Overcast OVC042 59 53.6 82% 29.85 0.0
06 05:35 NW 3 10.00 Overcast OVC048 59 51.8 77% 29.84 0.0
06 05:15 NW 2 10.00 Overcast OVC048 60.8 51.8 72% 29.84 0.0
06 04:55 Calm 10.00 Overcast OVC048 60.8 50 68% 29.84 0.0
06 04:35 Calm 10.00 Overcast BKN048 OVC065 60.8 51.8 72% 29.85 0.0
06 04:15 S 7 10.00 Light Rain BKN050 OVC070 60.8 50 68% 29.86 0.0
06 03:55 SW 9 10.00 Light Rain BKN050 BKN070 OVC090 62.6 48.2 60% 29.87 0.0
06 03:35 W 7 10.00 Overcast BKN050 OVC060 62.6 48.2 60% 29.86 0.0
06 03:15 SW 3 10.00 Overcast BKN060 BKN070 OVC100 62.6 46.4 56% 29.85 0.0
06 02:55 W 5 10.00 Overcast OVC060 62.6 46.4 56% 29.86 0.0
06 02:35 W 5 10.00 Overcast BKN060 BKN080 OVC100 62.6 46.4 56% 29.87 0.0
06 02:15 W 6 10.00 Overcast OVC100 62.6 46.4 56% 29.87 0.0
06 01:55 SW 5 10.00 Mostly Cloudy FEW060 BKN100 BKN120 62.6 44.6 68.5 58.1 52% 29.87 0.0
06 01:35 SW 6 10.00 Mostly Cloudy BKN060 BKN075 62.6 44.6 52% 29.89 0.0
06 01:15 W 6 10.00 Overcast OVC070 60.8 44.6 55% 29.9 0.0
06 00:55 W 5 10.00 Mostly Cloudy BKN070 BKN080 60.8 44.6 55% 29.91 0.0
06 00:35 W 5 10.00 A Few Clouds FEW080 59 44.6 59% 29.91 0.0
06 00:15 W 3 10.00 Fair CLR 59 44.6 59% 29.91 0.0
05 23:55 W 2 10.00 Fair CLR 62.6 44.6 52% 29.9 0.0
05 23:35 SW 3 10.00 Fair CLR 62.6 44.6 52% 29.9 0.0
05 23:15 SW 5 10.00 A Few Clouds FEW070 64.4 44.6 49% 29.9 0.0
05 22:55 S 5 10.00 A Few Clouds FEW070 64.4 44.6 49% 29.9 0.0
05 22:35 SW 6 10.00 A Few Clouds FEW090 66.2 44.6 46% 29.9 0.0
05 22:15 S 10 10.00 Overcast OVC090 68 42.8 40% 29.9 0.0
05 21:55 S 7 10.00 Overcast OVC090 68 42.8 40% 29.9 0.0
05 21:35 S 7 10.00 Overcast OVC100 66.2 44.6 46% 29.9 0.0
05 21:15 S 7 10.00 Mostly Cloudy SCT090 BKN120 66.2 44.6 46% 29.9 0.0
05 20:55 S 7 10.00 Mostly Cloudy FEW090 BKN120 66.2 46.4 49% 29.9 0.0
05 20:35 S 6 10.00 Mostly Cloudy BKN100 68 46.4 46% 29.9 0.0
05 20:15 S 6 10.00 Mostly Cloudy BKN100 66.2 48.2 52% 29.9 0.0
05 19:55 S 5 10.00 Mostly Cloudy BKN100 BKN120 68 48.2 74.3 68.4 49% 29.9 0.0
05 19:35 S 5 10.00 A Few Clouds FEW110 69.8 46.4 43% 29.9 0.0
05 19:15 SW 6 10.00 Fair CLR 69.8 48.2 46% 29.9 0.0
05 18:55 SW 6 10.00 Fair CLR 69.8 46.4 43% 29.9 0.0
05 18:35 W 9 10.00 Fair CLR 69.8 46.4 43% 29.9 0.0
05 18:15 W 8 10.00 Fair CLR 71.6 46.4 41% 29.9 0.0
05 17:55 SW 9 10.00 Fair CLR 71.6 46.4 41% 29.89 0.0
05 17:35 W 13 10.00 Fair CLR 71.6 44.6 38% 29.89 0.0
05 17:15 W 10 10.00 Fair CLR 73.4 46.4 38% 29.9 0.0
05 16:55 W 10 10.00 Fair CLR 71.6 44.6 38% 29.9 0.0
05 16:35 W 9 10.00 Fair CLR 71.6 44.6 38% 29.91 0.0
05 16:15 SW 8 10.00 Fair CLR 73.4 42.8 33% 29.91 0.0
05 15:55 SW 9 10.00 Fair CLR 71.6 44.6 38% 29.92 0.0
05 15:35 W 10 10.00 Fair CLR 73.4 44.6 36% 29.93 0.0
05 15:15 W 12 G 18 10.00 Fair CLR 73.4 42.8 33% 29.94 0.0
05 14:55 SW 12 G 16 10.00 Fair CLR 71.6 42.8 36% 29.94 0.0
05 14:35 W 12 10.00 Fair CLR 73.4 42.8 33% 29.96 0.0
05 14:15 SW 16 10.00 Fair CLR 71.6 44.6 38% 29.96 0.0
05 13:55 SW 12 G 17 10.00 Fair CLR 71.6 42.8 72.5 49.6 36% 29.97 0.0
05 13:35 W 17 G 23 10.00 Fair CLR 69.8 42.8 38% 29.98 0.0
05 13:15 SW 15 G 22 10.00 Fair CLR 71.6 44.6 38% 29.98 0.0
05 12:55 SW 12 G 21 10.00 Fair CLR 69.8 46.4 43% 29.99 0.0
05 12:35 SW 7 10.00 Fair CLR 68 44.6 43% 30 0.0
05 12:15 W 16 G 20 10.00 Fair CLR 69.8 44.6 40% 30.01 0.0
05 11:55 W 9 G 22 10.00 A Few Clouds FEW055 68 42.8 40% 30.02 0.0
05 11:35 W 15 G 20 10.00 Partly Cloudy SCT055 69.8 44.6 40% 30.02 0.0
05 11:15 SW 13 G 22 10.00 Fair CLR 68 42.8 40% 30.02 0.0
05 10:55 SW 14 G 21 10.00 Fair CLR 66.2 44.6 46% 30.02 0.0
05 10:35 SW 16 10.00 Fair CLR 68 44.6 43% 30.01 0.0
05 10:15 W 14 G 17 10.00 Fair CLR 66.2 44.6 46% 30.02 0.0
05 09:55 SW 14 10.00 Fair CLR 64.4 46.4 52% 30.01 0.0
05 09:35 SW 8 10.00 Fair CLR 62.6 46.4 56% 30.01 0.0
05 09:15 SW 5 10.00 Fair CLR 62.6 46.4 56% 30 0.0
05 08:55 Vrbl 2 10.00 Fair CLR 59 48.2 68% 30.01 0.0
05 08:35 Vrbl 2 10.00 Fair CLR 57.2 48.2 72% 30.01 0.0
05 08:15 Vrbl 1 10.00 Fair CLR 55.4 48.2 77% 30 0.0
05 07:55 Vrbl 2 10.00 Fair CLR 50 46.4 51.6 44.4 88% 30 0.0
05 07:35 Vrbl 2 10.00 Fair CLR 46.4 42.8 87% 29.99 0.0
05 07:15 Vrbl 3 10.00 Fair CLR 46.4 42.8 87% 29.98 0.0
05 06:55 E 3 10.00 Fair CLR 44.6 42.8 93% 29.98 0.0
05 06:35 Calm 10.00 Fair CLR 44.6 42.8 93% 29.98 0.0
05 06:15 NE 2 10.00 Fair CLR 46.4 42.8 87% 29.98 0.0
05 05:55 Calm 10.00 Fair CLR 46.4 42.8 87% 29.98 0.0
05 05:35 Calm 10.00 Fair CLR 46.4 42.8 87% 29.98 0.0
05 05:15 Calm 10.00 Fair CLR 46.4 42.8 87% 29.97 0.0
05 04:55 E 2 10.00 Fair CLR 48.2 44.6 87% 29.97 0.0
05 04:35 Calm 10.00 Fair CLR 48.2 42.8 82% 29.98 0.0
05 04:15 E 2 10.00 Fair CLR 48.2 44.6 87% 29.97 0.0
05 03:55 NE 1 10.00 Fair CLR 50 44.6 82% 29.96 0.0
05 03:35 Calm 10.00 Fair CLR 48.2 44.6 87% 29.96 0.0
05 03:15 Calm 10.00 Fair CLR 48.2 44.6 87% 29.95 0.0
05 02:55 Calm 10.00 Fair CLR 48.2 44.6 87% 29.95 0.0
05 02:35 Calm 10.00 Fair CLR 50 44.6 82% 29.95 0.0
05 02:15 Calm 10.00 Fair CLR 48.2 44.6 87% 29.94 0.0
05 01:55 Calm 10.00 Fair CLR 50 46.4 67.6 48.9 88% 29.95 0.0
05 01:35 Calm 10.00 Fair CLR 50 46.4 88% 29.95 0.0
05 01:15 Calm 10.00 Fair CLR 50 46.4 88% 29.95 0.0
05 00:55 Calm 10.00 Fair CLR 50 46.4 88% 29.94 0.0
05 00:15 NW 3 10.00 Fair CLR 51.8 46.4 82% 29.94 0.0
04 23:55 NW 3 10.00 Fair CLR 53.6 46.4 77% 29.93 0.0
04 23:35 Calm 10.00 Fair CLR 53.6 46.4 77% 29.94 0.0
04 23:15 Calm 10.00 Fair CLR 53.6 46.4 77% 29.94 0.0
04 22:55 Calm 10.00 Fair CLR 55.4 46.4 72% 29.95 0.0
04 22:35 Calm 10.00 Fair CLR 55.4 46.4 72% 29.95 0.0
04 22:15 Calm 10.00 Fair CLR 55.4 46.4 72% 29.95 0.0
04 21:55 Calm 10.00 Fair CLR 55.4 46.4 72% 29.94 0.0
04 21:35 Calm 10.00 Fair CLR 57.2 46.4 67% 29.94 0.0
04 21:15 NW 5 10.00 Fair CLR 57.2 46.4 67% 29.94 0.0
04 20:55 NW 1 10.00 Fair CLR 60.8 46.4 59% 29.94 0.0
04 20:35 NW 3 10.00 Fair CLR 60.8 46.4 59% 29.93 0.0
04 20:15 Calm 10.00 Fair CLR 64.4 44.6 49% 29.92 0.0
04 19:35 W 6 10.00 Fair CLR 68 44.6 43% 29.92 0.0
04 19:15 SW 6 10.00 Fair CLR 69.8 42.8 38% 29.92 0.0
04 18:55 SW 7 10.00 Fair CLR 71.6 44.6 38% 29.92 0.0
04 18:35 W 9 10.00 Fair CLR 71.6 44.6 38% 29.92 0.0
04 18:15 W 7 10.00 Fair CLR 71.6 42.8 36% 29.93 0.0
04 17:35 W 14 G 18 10.00 Fair CLR 71.6 42.8 36% 29.93 0.0
04 17:15 W 12 G 18 10.00 A Few Clouds FEW060 71.6 44.6 38% 29.94 0.0
04 16:55 SW 9 10.00 A Few Clouds FEW060 69.8 48.2 46% 29.94 0.0
04 16:35 W 15 G 18 10.00 A Few Clouds FEW050 71.6 48.2 44% 29.95 0.0
04 16:15 SW 12 10.00 Partly Cloudy SCT050 69.8 46.4 43% 29.95 0.0
04 15:55 S 10 G 16 10.00 A Few Clouds FEW060 69.8 46.4 43% 29.96 0.0
04 15:35 W 15 10.00 Partly Cloudy SCT050 71.6 48.2 44% 29.97 0.0
04 15:15 SW 13 G 20 10.00 Fair CLR 69.8 46.4 43% 29.98 0.0
04 14:55 SW 14 10.00 Fair CLR 68 46.4 46% 29.99 0.0
04 14:35 SW 10 10.00 Fair CLR 66.2 46.4 49% 30 0.0
04 14:15 SW 13 10.00 Fair CLR 66.2 44.6 46% 30 0.0
04 13:55 SW 14 10.00 Fair CLR 66.2 44.6 64.4 45 46% 30.01 0.0
04 13:35 SW 12 G 17 10.00 Fair CLR 64.4 44.6 49% 30.01 0.0
04 13:15 W 13 10.00 Fair CLR 62.6 42.8 49% 30.02 0.0
04 12:55 SW 9 10.00 Partly Cloudy SCT065 SCT075 60.8 44.6 55% 30.03 0.0
04 12:35 W 7 10.00 Mostly Cloudy FEW049 BKN065 BKN085 57.2 44.6 63% 30.04 0.0
04 12:15 SW 8 G 16 10.00 Overcast FEW049 SCT055 OVC065 57.2 42.8 59% 30.05 0.0
04 11:55 SW 9 10.00 Mostly Cloudy BKN075 BKN090 55.4 42.8 63% 30.05 0.0
04 11:35 Vrbl 7 10.00 Mostly Cloudy BKN075 BKN090 53.6 42.8 67% 30.06 0.0
04 11:15 SW 7 10.00 Mostly Cloudy BKN075 BKN080 51.8 44.6 77% 30.07 0.0
04 10:55 SW 7 10.00 Overcast FEW060 OVC070 50 44.6 82% 48 30.08 0.0 0.04
04 10:35 S 8 10.00 Light Rain OVC070 48.2 44.6 87% 45 30.07 0.0
04 10:15 S 6 10.00 Light Rain SCT049 BKN065 OVC080 50 41 71% 48 30.1 0.0
04 09:55 W 5 10.00 Overcast BKN034 BKN048 OVC070 50 41 71% 49 30.1 0.0
04 09:35 W 9 10.00 Light Rain BKN070 BKN080 OVC095 50 41 71% 47 30.1 0.0
04 09:15 W 8 10.00 Overcast OVC090 51.8 37.4 58% 30.09 0.0
04 08:55 W 9 10.00 Mostly Cloudy FEW085 BKN110 51.8 37.4 58% 30.07 0.0
04 08:35 SW 8 10.00 Mostly Cloudy FEW070 SCT085 BKN110 51.8 39.2 62% 30.05 0.0
04 08:15 S 3 10.00 A Few Clouds FEW120 48.2 39.2 71% 30.05 0.0
04 07:55 W 1 10.00 Fair CLR 44.6 37.4 45.1 37 76% 30.05 0.0
04 07:35 Vrbl 1 10.00 Fair CLR 42.8 37.4 81% 30.04 0.0
04 07:15 NW 3 10.00 A Few Clouds FEW070 41 35.6 81% 30.04 0.0
04 06:55 NW 5 10.00 Partly Cloudy SCT080 41 35.6 81% 38 30.02 0.0
04 06:35 Calm 10.00 A Few Clouds FEW070 39.2 35.6 87% 30.02 0.0
04 06:15 Calm 10.00 Overcast BKN070 OVC080 41 35.6 81% 30.04 0.0
04 05:55 Calm 10.00 Overcast OVC090 41 35.6 81% 30.04 0.0
04 05:35 NW 2 10.00 Mostly Cloudy SCT090 BKN110 37.4 33.8 87% 30.04 0.0
04 05:15 Calm 10.00 Partly Cloudy SCT110 37.4 33.8 87% 30.03 0.0
04 04:55 Calm 10.00 Partly Cloudy SCT110 39.2 33.8 81% 30.04 0.0
04 04:35 Calm 10.00 Fair CLR 39.2 33.8 81% 30.04 0.0
04 04:15 Calm 10.00 A Few Clouds FEW110 39.2 33.8 81% 30.04 0.0
04 03:55 Calm 10.00 Fair CLR 41 33.8 76% 30.03 0.0
04 03:35 NE 2 10.00 Fair CLR 41 33.8 76% 30.03 0.0
04 03:15 E 3 10.00 Partly Cloudy SCT120 39.2 33.8 81% 30.04 0.0
04 02:55 Calm 10.00 Partly Cloudy SCT120 39.2 33.8 81% 30.04 0.0
04 02:35 Calm 10.00 Fair CLR 39.2 33.8 81% 30.04 0.0
04 02:15 Calm 10.00 Fair CLR 41 33.8 76% 30.05 0.0
04 01:55 Calm 10.00 Fair CLR 41 33.8 55.8 39.7 76% 30.05 0.0
04 01:15 Calm 10.00 A Few Clouds FEW110 41 33.8 76% 30.05 0.0
04 00:55 Calm 10.00 Fair CLR 41 33.8 76% 30.05 0.0
04 00:35 Calm 10.00 Fair CLR 41 33.8 76% 30.04 0.0
04 00:15 Calm 10.00 Fair CLR 41 33.8 76% 30.04 0.0
03 23:55 Calm 10.00 Fair CLR 42.8 33.8 71% 30.05 0.0
03 23:35 Calm 10.00 Fair CLR 42.8 33.8 71% 30.04 0.0
03 23:15 Calm 10.00 Fair CLR 42.8 33.8 71% 30.04 0.0
03 22:55 Calm 10.00 Fair CLR 44.6 32 61% 30.04 0.0
03 22:35 NW 2 10.00 Fair CLR 44.6 33.8 66% 30.04 0.0
03 22:15 Calm 10.00 Fair CLR 46.4 33.8 62% 30.03 0.0
03 21:55 Calm 10.00 Fair CLR 48.2 32 54% 30.03 0.0
03 21:35 SW 1 10.00 Fair CLR 48.2 32 54% 30.04 0.0
03 21:15 W 3 10.00 Fair CLR 50 30.2 47% 30.03 0.0
03 20:55 W 2 10.00 Fair CLR 51.8 30.2 44% 30.03 0.0
03 20:35 W 3 10.00 Fair CLR 53.6 30.2 41% 30.02 0.0
03 20:15 W 6 10.00 Fair CLR 53.6 30.2 41% 30.01 0.0
03 19:55 SW 7 10.00 Fair CLR 55.4 30.2 59.9 53.1 38% 30.02 0.0
03 19:35 W 8 10.00 Fair CLR 57.2 30.2 36% 30.02 0.0
03 19:15 W 8 10.00 Fair CLR 57.2 30.2 36% 30.02 0.0
03 18:55 W 13 G 16 10.00 Fair CLR 59 28.4 31% 30.02 0.0
03 18:35 SW 9 10.00 Fair CLR 59 28.4 31% 30.03 0.0
03 18:15 W 12 10.00 Fair CLR 59 28.4 31% 30.03 0.0
03 17:55 W 12 10.00 Fair CLR 59 24.8 27% 30.03 0.0
03 17:35 W 9 10.00 Fair CLR 59 26.6 29% 30.03 0.0
03 17:15 SW 13 G 17 10.00 Fair CLR 59 24.8 27% 30.04 0.0
03 16:55 SW 13 G 17 10.00 Fair CLR 59 26.6 29% 30.04 0.0
03 16:35 SW 14 G 17 10.00 Fair CLR 59 26.6 29% 30.05 0.0
Date Time (edt) Wind (mph) Vis. (mi.) Weather Sky Cond. Air Dwpt Max. Min. Relative Humidity Wind Chill (°F) Heat Index (°F) altimeter (in) sea level (mb) 1 hr 3 hr 6 hr
6 hour
Temperature (ºF) Pressure Precipitation (in)